createdAt,value
2022-10-22T00:00:07.173Z,4.43
2022-10-22T00:03:10.011Z,3.83
2022-10-22T00:06:12.320Z,3.90
2022-10-22T00:09:14.982Z,4.25
2022-10-22T00:12:18.941Z,3.95
2022-10-22T00:15:21.503Z,4.68
2022-10-22T00:18:23.757Z,4.50
2022-10-22T00:21:29.018Z,5.60
2022-10-22T00:24:31.576Z,4.35
2022-10-22T00:27:35.186Z,4.80
2022-10-22T00:30:37.893Z,4.15
2022-10-22T00:33:40.164Z,4.38
2022-10-22T00:36:42.487Z,5.30
2022-10-22T00:39:44.769Z,4.60
2022-10-22T00:42:48.712Z,4.50
2022-10-22T00:45:50.993Z,4.75
2022-10-22T00:48:53.614Z,4.60
2022-10-22T00:51:55.900Z,4.40
2022-10-22T00:54:58.216Z,4.50
2022-10-22T00:58:02.121Z,3.88
2022-10-22T01:01:05.815Z,4.63
2022-10-22T01:04:08.250Z,4.75
2022-10-22T01:07:15.737Z,4.85
2022-10-22T01:10:29.064Z,4.20
2022-10-22T01:13:39.284Z,4.05
2022-10-22T01:16:47.757Z,5.07
2022-10-22T01:20:05.848Z,4.00
2022-10-22T01:23:21.304Z,4.22
2022-10-22T01:26:28.193Z,5.28
2022-10-22T01:29:34.530Z,4.70
2022-10-22T01:32:43.305Z,4.22
2022-10-22T01:35:45.909Z,3.85
2022-10-22T01:38:49.886Z,3.88
2022-10-22T01:41:55.020Z,4.30
2022-10-22T01:44:58.657Z,4.20
2022-10-22T01:48:08.885Z,3.88
2022-10-22T01:51:44.375Z,4.13
2022-10-22T01:54:52.118Z,4.25
2022-10-22T01:58:02.417Z,4.60
2022-10-22T02:01:08.938Z,4.40
2022-10-22T02:04:15.389Z,4.80
2022-10-22T02:07:19.904Z,4.90
2022-10-22T02:10:22.907Z,4.53
2022-10-22T02:13:28.548Z,4.55
2022-10-22T02:16:34.556Z,4.70
2022-10-22T02:19:40.492Z,5.47
2022-10-22T02:22:43.036Z,5.45
2022-10-22T02:25:49.101Z,4.50
2022-10-22T02:28:58.596Z,4.63
2022-10-22T02:32:03.830Z,4.82
2022-10-22T02:35:07.923Z,5.55
2022-10-22T02:38:10.988Z,4.60
2022-10-22T02:41:13.698Z,4.32
2022-10-22T02:44:16.083Z,4.32
2022-10-22T02:47:20.153Z,4.50
2022-10-22T02:50:22.424Z,3.90
2022-10-22T02:53:24.705Z,4.53
2022-10-22T02:56:27.048Z,4.50
2022-10-22T02:59:29.356Z,4.13
2022-10-22T03:02:32.975Z,4.53
2022-10-22T03:05:35.264Z,4.78
2022-10-22T03:08:37.522Z,4.93
2022-10-22T03:11:39.960Z,4.95
2022-10-22T03:14:42.216Z,4.47
2022-10-22T03:17:45.826Z,5.30
2022-10-22T03:20:48.030Z,5.55
2022-10-22T03:23:50.433Z,4.70
2022-10-22T03:26:53.081Z,5.10
2022-10-22T03:29:55.754Z,5.07
2022-10-22T03:32:59.426Z,4.78
2022-10-22T03:36:04.189Z,5.55
2022-10-22T03:39:07.752Z,4.95
2022-10-22T03:42:53.248Z,5.38
2022-10-22T03:46:26.776Z,5.63
2022-10-22T03:53:34.689Z,4.93
2022-10-22T03:57:34.274Z,4.93
2022-10-22T04:05:41.407Z,6.03
2022-10-22T04:10:05.532Z,6.30
2022-10-22T04:19:03.095Z,6.30
2022-10-22T04:36:08.345Z,5.72
2022-10-22T04:40:18.071Z,5.43
2022-10-22T04:44:30.604Z,5.78
2022-10-22T04:47:55.836Z,6.13
2022-10-22T04:51:40.331Z,6.03
2022-10-22T04:54:54.876Z,5.78
2022-10-22T04:58:27.619Z,5.32
2022-10-22T05:12:08.167Z,5.93
2022-10-22T05:35:35.951Z,5.88
2022-10-22T05:49:03.724Z,5.15
2022-10-22T05:53:58.410Z,5.50
2022-10-22T05:57:58.030Z,5.78
2022-10-22T06:06:30.932Z,5.85
2022-10-22T06:10:43.260Z,5.95
2022-10-22T06:13:45.896Z,5.63
2022-10-22T06:16:48.552Z,6.03
2022-10-22T06:19:50.788Z,5.45
2022-10-22T06:22:54.470Z,5.38
2022-10-22T06:25:57.434Z,5.22
2022-10-22T06:28:59.775Z,4.53
2022-10-22T06:32:01.991Z,3.88
2022-10-22T06:35:04.877Z,3.40
2022-10-22T06:38:08.489Z,3.40
2022-10-22T06:41:12.418Z,3.38
2022-10-22T06:44:15.727Z,3.88
2022-10-22T06:47:18.034Z,3.40
2022-10-22T06:50:20.274Z,3.58
2022-10-22T06:53:23.934Z,3.83
2022-10-22T06:56:28.593Z,3.58
2022-10-22T06:59:30.971Z,3.67
2022-10-22T07:02:33.223Z,3.22
2022-10-22T07:05:35.611Z,3.33
2022-10-22T07:08:40.087Z,3.33
2022-10-22T07:11:43.816Z,3.60
2022-10-22T07:14:46.072Z,3.05
2022-10-22T07:17:48.334Z,2.88
2022-10-22T07:20:50.929Z,2.53
2022-10-22T07:23:54.794Z,2.40
2022-10-22T07:26:57.435Z,2.15
2022-10-22T07:30:01.432Z,2.20
2022-10-22T07:33:03.886Z,1.63
2022-10-22T07:36:07.938Z,1.27
2022-10-22T07:39:11.604Z,1.88
2022-10-22T07:42:13.863Z,1.60
2022-10-22T07:45:16.177Z,1.17
2022-10-22T07:48:18.577Z,1.40
2022-10-22T07:51:20.941Z,1.20
2022-10-22T07:54:24.946Z,1.00
2022-10-22T07:57:27.198Z,1.00
2022-10-22T08:00:29.549Z,1.27
2022-10-22T08:03:32.160Z,1.33
2022-10-22T08:06:34.528Z,1.77
2022-10-22T08:09:38.250Z,2.00
2022-10-22T08:12:41.563Z,1.33
2022-10-22T08:18:47.320Z,2.00
2022-10-22T08:21:49.576Z,1.60
2022-10-22T08:24:53.491Z,1.90
2022-10-22T08:27:55.789Z,1.95
2022-10-22T08:30:58.200Z,1.65
2022-10-22T08:34:00.461Z,1.70
2022-10-22T08:37:02.724Z,2.70
2022-10-22T08:40:07.596Z,1.83
2022-10-22T08:43:37.872Z,1.88
2022-10-22T08:46:55.000Z,2.03
2022-10-22T08:49:59.271Z,2.00
2022-10-22T08:53:11.231Z,1.80
2022-10-22T08:56:24.760Z,2.33
2022-10-22T08:59:37.184Z,2.03
2022-10-22T09:02:50.242Z,1.92
2022-10-22T09:05:56.916Z,3.15
2022-10-22T09:09:00.543Z,2.45
2022-10-22T09:12:07.398Z,1.70
2022-10-22T09:15:13.617Z,1.40
2022-10-22T09:18:24.449Z,1.50
2022-10-22T09:24:37.166Z,1.27
2022-10-22T09:27:41.266Z,2.45
2022-10-22T09:30:43.986Z,1.20
2022-10-22T09:33:49.064Z,1.10
2022-10-22T09:36:58.339Z,1.58
2022-10-22T09:40:05.760Z,1.40
2022-10-22T09:43:11.713Z,1.00
2022-10-22T09:46:18.170Z,1.15
2022-10-22T09:49:22.751Z,1.00
2022-10-22T09:52:28.841Z,1.35
2022-10-22T09:55:31.440Z,1.23
2022-10-22T09:58:44.038Z,1.50
2022-10-22T10:01:46.394Z,1.70
2022-10-22T10:04:50.975Z,1.63
2022-10-22T10:07:53.268Z,1.30
2022-10-22T10:10:59.447Z,0.88
2022-10-22T10:14:08.413Z,1.10
2022-10-22T10:17:16.025Z,1.20
2022-10-22T10:20:30.064Z,0.63
2022-10-22T10:23:36.595Z,1.17
2022-10-22T10:26:42.691Z,0.90
2022-10-22T10:29:52.160Z,0.93
2022-10-22T10:33:03.200Z,0.73
2022-10-22T10:36:11.461Z,1.65
2022-10-22T10:39:18.844Z,0.55
2022-10-22T10:42:24.616Z,0.80
2022-10-22T10:45:31.877Z,0.60
2022-10-22T10:48:50.072Z,0.50
2022-10-22T10:51:55.715Z,0.95
2022-10-22T10:55:05.391Z,0.60
2022-10-22T10:58:14.699Z,0.45
2022-10-22T11:01:24.762Z,0.60
2022-10-22T11:04:42.124Z,0.75
2022-10-22T11:07:50.821Z,0.70
2022-10-22T11:11:00.755Z,0.95
2022-10-22T11:14:07.719Z,0.45
2022-10-22T11:17:14.854Z,0.65
2022-10-22T11:20:19.460Z,0.50
2022-10-22T11:23:25.910Z,0.68
2022-10-22T11:26:36.440Z,0.68
2022-10-22T11:29:41.325Z,0.50
2022-10-22T11:32:47.427Z,0.40
2022-10-22T11:35:50.223Z,0.68
2022-10-22T11:38:52.916Z,0.50
2022-10-22T11:41:55.427Z,0.43
2022-10-22T11:45:03.104Z,0.57
2022-10-22T11:48:16.142Z,0.50
2022-10-22T11:51:30.497Z,0.60
2022-10-22T11:54:42.861Z,0.70
2022-10-22T11:57:45.135Z,0.98
2022-10-22T12:00:48.747Z,0.88
2022-10-22T12:03:54.035Z,5.47
2022-10-22T12:07:00.192Z,1.25
2022-10-22T12:10:05.937Z,1.00
2022-10-22T12:13:12.996Z,0.30
2022-10-22T12:16:18.014Z,0.40
2022-10-22T12:19:32.923Z,0.60
2022-10-22T12:22:38.798Z,0.30
2022-10-22T12:25:41.450Z,0.40
2022-10-22T12:28:43.785Z,0.40
2022-10-22T12:31:47.179Z,1.05
2022-10-22T12:34:52.348Z,0.45
2022-10-22T12:37:56.477Z,0.40
2022-10-22T12:40:58.772Z,0.70
2022-10-22T12:44:01.575Z,0.40
2022-10-22T12:47:03.937Z,0.60
2022-10-22T12:50:08.307Z,0.40
2022-10-22T12:53:14.549Z,1.48
2022-10-22T12:56:21.929Z,1.70
2022-10-22T12:59:25.810Z,1.63
2022-10-22T13:02:29.173Z,1.63
2022-10-22T13:05:38.863Z,0.50
2022-10-22T13:08:41.217Z,0.88
2022-10-22T13:11:50.170Z,0.38
2022-10-22T13:14:52.427Z,0.43
2022-10-22T13:18:02.661Z,0.50
2022-10-22T13:21:06.517Z,0.40
2022-10-22T13:24:20.821Z,0.50
2022-10-22T13:27:23.554Z,0.45
2022-10-22T13:30:28.499Z,0.40
2022-10-22T13:33:33.857Z,0.65
2022-10-22T13:36:37.554Z,0.50
2022-10-22T13:39:39.796Z,0.60
2022-10-22T13:42:42.519Z,0.40
2022-10-22T13:45:45.892Z,0.60
2022-10-22T13:48:48.889Z,0.60
2022-10-22T13:51:53.506Z,0.50
2022-10-22T13:54:55.879Z,0.45
2022-10-22T13:58:01.897Z,0.50
2022-10-22T14:01:08.682Z,0.40
2022-10-22T14:04:14.927Z,0.50
2022-10-22T14:07:18.861Z,0.50
2022-10-22T14:10:23.404Z,0.52
2022-10-22T14:13:26.595Z,0.60
2022-10-22T14:16:31.244Z,0.50
2022-10-22T14:19:33.485Z,0.40
2022-10-22T14:22:37.045Z,1.27
2022-10-22T14:25:39.332Z,0.77
2022-10-22T14:29:07.899Z,0.57
2022-10-22T14:32:04.007Z,0.75
2022-10-22T14:35:07.104Z,0.60
2022-10-22T14:38:11.070Z,0.50
2022-10-22T14:41:19.446Z,0.60
2022-10-22T14:44:21.697Z,0.98
2022-10-22T14:47:24.171Z,1.25
2022-10-22T14:50:26.476Z,0.80
2022-10-22T14:53:30.068Z,0.60
2022-10-22T14:56:32.307Z,1.30
2022-10-22T14:59:34.522Z,1.45
2022-10-22T15:02:36.920Z,0.88
2022-10-22T15:05:43.312Z,0.60
2022-10-22T15:08:47.050Z,0.73
2022-10-22T15:11:49.359Z,0.80
2022-10-22T15:14:51.632Z,0.80
2022-10-22T15:17:53.825Z,0.70
2022-10-22T15:20:58.168Z,2.13
2022-10-22T15:24:02.455Z,1.65
2022-10-22T15:27:04.959Z,1.88
2022-10-22T15:30:08.439Z,1.15
2022-10-22T15:33:11.052Z,0.88
2022-10-22T15:36:15.901Z,0.68
2022-10-22T15:39:19.522Z,1.17
2022-10-22T15:42:23.170Z,0.82
2022-10-22T15:45:25.775Z,1.17
2022-10-22T15:48:27.979Z,1.10
2022-10-22T15:51:30.406Z,1.55
2022-10-22T15:54:34.467Z,1.75
2022-10-22T15:57:36.891Z,1.23
2022-10-22T16:00:39.165Z,1.17
2022-10-22T16:03:41.649Z,1.10
2022-10-22T16:06:45.654Z,1.13
2022-10-22T16:09:49.338Z,0.95
2022-10-22T16:12:54.152Z,1.00
2022-10-22T16:15:56.424Z,1.45
2022-10-22T16:18:58.804Z,1.38
2022-10-22T16:22:02.305Z,1.50
2022-10-22T16:25:06.901Z,1.92
2022-10-22T16:28:09.965Z,1.95
2022-10-22T16:31:14.360Z,2.08
2022-10-22T16:34:16.576Z,2.42
2022-10-22T16:37:18.982Z,2.45
2022-10-22T16:40:22.638Z,2.42
2022-10-22T16:43:24.993Z,3.15
2022-10-22T16:46:27.297Z,4.32
2022-10-22T16:49:29.520Z,3.75
2022-10-22T16:52:31.833Z,3.72
2022-10-22T16:55:37.665Z,3.97
2022-10-22T16:58:44.343Z,12.25
2022-10-22T17:01:46.663Z,5.15
2022-10-22T17:04:48.889Z,6.35
2022-10-22T17:07:51.720Z,5.50
2022-10-22T17:10:55.341Z,6.75
2022-10-22T17:13:57.631Z,5.95
2022-10-22T17:17:00.038Z,5.20
2022-10-22T17:20:02.383Z,5.95
2022-10-22T17:23:04.639Z,7.70
2022-10-22T17:26:12.360Z,7.00
2022-10-22T17:29:14.632Z,5.78
2022-10-22T17:32:16.893Z,6.93
2022-10-22T17:35:19.928Z,6.00
2022-10-22T17:38:22.305Z,7.25
2022-10-22T17:41:27.427Z,7.45
2022-10-22T17:44:29.652Z,8.52
2022-10-22T17:47:31.813Z,7.90
2022-10-22T17:50:34.077Z,6.90
2022-10-22T17:53:38.145Z,7.25
2022-10-22T17:56:41.923Z,12.13
2022-10-22T17:59:44.199Z,9.10
2022-10-22T18:02:46.404Z,8.02
2022-10-22T18:05:48.670Z,12.38
2022-10-22T18:08:51.012Z,7.22
2022-10-22T18:11:54.991Z,7.53
2022-10-22T18:14:57.239Z,7.63
2022-10-22T18:17:59.460Z,12.77
2022-10-22T18:21:05.092Z,6.88
2022-10-22T18:24:07.755Z,6.03
2022-10-22T18:27:11.350Z,6.70
2022-10-22T18:30:13.928Z,7.07
2022-10-22T18:33:18.618Z,6.78
2022-10-22T18:36:22.789Z,6.28
2022-10-22T18:39:25.374Z,5.72
2022-10-22T18:42:32.460Z,6.78
2022-10-22T18:45:41.523Z,6.80
2022-10-22T18:48:44.128Z,8.27
2022-10-22T18:51:48.835Z,8.88
2022-10-22T18:54:51.093Z,6.13
2022-10-22T18:57:54.717Z,6.07
2022-10-22T19:00:57.058Z,6.60
2022-10-22T19:03:59.599Z,6.32
2022-10-22T19:07:01.966Z,6.28
2022-10-22T19:10:05.103Z,7.40
2022-10-22T19:13:08.661Z,5.88
2022-10-22T19:16:13.089Z,6.32
2022-10-22T19:19:18.013Z,7.00
2022-10-22T19:22:20.865Z,6.78
2022-10-22T19:25:23.933Z,6.45
2022-10-22T19:28:27.547Z,6.72
2022-10-22T19:31:31.168Z,8.18
2022-10-22T19:34:33.547Z,9.00
2022-10-22T19:37:37.532Z,7.32
2022-10-22T19:40:40.767Z,7.70
2022-10-22T19:43:45.514Z,8.18
2022-10-22T19:46:47.944Z,8.52
2022-10-22T19:49:50.747Z,9.13
2022-10-22T19:52:53.037Z,8.13
2022-10-22T19:55:55.309Z,8.45
2022-10-22T19:58:59.253Z,8.73
2022-10-22T20:02:01.541Z,8.98
2022-10-22T20:05:04.170Z,17.77
2022-10-22T20:08:06.457Z,12.23
2022-10-22T20:11:10.765Z,10.73
2022-10-22T20:14:14.597Z,8.30
2022-10-22T20:17:16.845Z,8.93
2022-10-22T20:20:21.898Z,9.13
2022-10-22T20:23:26.622Z,9.18
2022-10-22T20:26:29.481Z,10.32
2022-10-22T20:29:33.280Z,10.07
2022-10-22T20:32:37.041Z,9.80
2022-10-22T20:35:39.475Z,9.50
2022-10-22T20:38:42.159Z,9.52
2022-10-22T20:41:44.454Z,10.38
2022-10-22T20:44:48.065Z,9.10
2022-10-22T20:47:51.618Z,8.38
2022-10-22T20:51:02.643Z,8.70
2022-10-22T20:54:06.461Z,9.60
2022-10-22T20:57:09.076Z,8.32
2022-10-22T21:00:13.965Z,8.38
2022-10-22T21:03:16.305Z,8.45
2022-10-22T21:06:21.041Z,7.65
2022-10-22T21:09:25.284Z,8.90
2022-10-22T21:12:27.579Z,7.82
2022-10-22T21:15:31.143Z,8.60
2022-10-22T21:18:33.528Z,8.77
2022-10-22T21:21:35.925Z,8.40
2022-10-22T21:24:38.263Z,8.05
2022-10-22T21:27:40.505Z,9.52
2022-10-22T21:30:46.225Z,8.98
2022-10-22T21:33:49.873Z,10.13
2022-10-22T21:36:52.905Z,7.55
2022-10-22T21:39:55.207Z,9.40
2022-10-22T21:43:18.727Z,9.07
2022-10-22T21:51:20.586Z,9.00
2022-10-22T21:54:35.846Z,8.75
2022-10-22T21:58:03.721Z,8.30
2022-10-22T22:01:34.470Z,7.75
2022-10-22T22:10:29.364Z,8.15
2022-10-22T22:15:30.842Z,8.95
2022-10-22T22:23:22.763Z,8.80
2022-10-22T22:35:56.446Z,8.45
2022-10-22T22:41:04.289Z,8.82
2022-10-22T22:49:25.755Z,9.93
2022-10-22T22:52:29.570Z,10.43
2022-10-22T22:55:34.931Z,8.80
2022-10-22T22:58:38.735Z,9.95
2022-10-22T23:01:41.259Z,8.23
2022-10-22T23:04:43.731Z,8.38
2022-10-22T23:07:47.341Z,8.05
2022-10-22T23:10:49.587Z,11.20
2022-10-22T23:13:53.227Z,10.00
2022-10-22T23:16:55.437Z,8.57
2022-10-22T23:20:00.468Z,7.95
2022-10-22T23:23:06.024Z,8.65
2022-10-22T23:26:09.918Z,7.95
2022-10-22T23:29:15.260Z,9.48
2022-10-22T23:32:17.472Z,10.00
2022-10-22T23:35:19.900Z,7.68
2022-10-22T23:38:23.514Z,9.88
2022-10-22T23:41:25.684Z,8.88
2022-10-22T23:44:27.895Z,8.60
2022-10-22T23:47:30.041Z,9.07
2022-10-22T23:50:32.203Z,7.50
2022-10-22T23:53:35.729Z,8.13
2022-10-22T23:56:38.286Z,9.43
2022-10-22T23:59:40.599Z,7.22
